sensor_id;sensor_type;location;lat;lon;timestamp;P1;durP1;ratioP1;P2;durP2;ratioP2
24801;SDS011;12898;50.520;12.152;2024-03-07T00:00:04;19.83;;;11.17;;
24801;SDS011;12898;50.520;12.152;2024-03-07T00:02:40;19.53;;;10.83;;
24801;SDS011;12898;50.520;12.152;2024-03-07T00:05:07;18.07;;;10.73;;
24801;SDS011;12898;50.520;12.152;2024-03-07T00:07:33;19.13;;;11.43;;
24801;SDS011;12898;50.520;12.152;2024-03-07T00:10:02;19.50;;;11.10;;
24801;SDS011;12898;50.520;12.152;2024-03-07T00:12:32;20.23;;;11.97;;
24801;SDS011;12898;50.520;12.152;2024-03-07T00:15:00;18.63;;;10.97;;
24801;SDS011;12898;50.520;12.152;2024-03-07T00:17:28;21.80;;;11.77;;
24801;SDS011;12898;50.520;12.152;2024-03-07T00:19:54;22.73;;;12.00;;
24801;SDS011;12898;50.520;12.152;2024-03-07T00:22:20;20.67;;;12.10;;
24801;SDS011;12898;50.520;12.152;2024-03-07T00:24:45;20.40;;;11.80;;
24801;SDS011;12898;50.520;12.152;2024-03-07T00:27:12;20.47;;;12.37;;
24801;SDS011;12898;50.520;12.152;2024-03-07T00:29:41;19.73;;;11.80;;
24801;SDS011;12898;50.520;12.152;2024-03-07T00:32:08;21.00;;;12.03;;
24801;SDS011;12898;50.520;12.152;2024-03-07T00:34:35;20.73;;;12.03;;
24801;SDS011;12898;50.520;12.152;2024-03-07T00:37:01;24.13;;;14.03;;
24801;SDS011;12898;50.520;12.152;2024-03-07T00:39:27;23.97;;;14.90;;
24801;SDS011;12898;50.520;12.152;2024-03-07T00:41:53;24.37;;;14.73;;
24801;SDS011;12898;50.520;12.152;2024-03-07T00:44:18;23.87;;;14.40;;
24801;SDS011;12898;50.520;12.152;2024-03-07T00:46:44;24.83;;;15.10;;
24801;SDS011;12898;50.520;12.152;2024-03-07T00:49:11;25.47;;;13.87;;
24801;SDS011;12898;50.520;12.152;2024-03-07T00:51:36;25.77;;;14.73;;
24801;SDS011;12898;50.520;12.152;2024-03-07T00:54:02;21.57;;;13.33;;
24801;SDS011;12898;50.520;12.152;2024-03-07T00:56:28;22.43;;;13.97;;
24801;SDS011;12898;50.520;12.152;2024-03-07T00:58:53;22.57;;;13.03;;
24801;SDS011;12898;50.520;12.152;2024-03-07T01:01:19;24.60;;;14.33;;
24801;SDS011;12898;50.520;12.152;2024-03-07T01:03:45;23.80;;;14.17;;
24801;SDS011;12898;50.520;12.152;2024-03-07T01:06:11;26.00;;;15.40;;
24801;SDS011;12898;50.520;12.152;2024-03-07T01:08:37;25.87;;;15.03;;
24801;SDS011;12898;50.520;12.152;2024-03-07T01:11:04;26.87;;;16.17;;
24801;SDS011;12898;50.520;12.152;2024-03-07T01:13:37;26.90;;;15.80;;
24801;SDS011;12898;50.520;12.152;2024-03-07T01:16:07;26.30;;;15.60;;
24801;SDS011;12898;50.520;12.152;2024-03-07T01:18:33;26.00;;;15.50;;
24801;SDS011;12898;50.520;12.152;2024-03-07T01:21:00;27.07;;;16.23;;
24801;SDS011;12898;50.520;12.152;2024-03-07T01:23:26;24.93;;;15.27;;
24801;SDS011;12898;50.520;12.152;2024-03-07T01:25:55;26.23;;;15.73;;
24801;SDS011;12898;50.520;12.152;2024-03-07T01:28:22;27.87;;;16.80;;
24801;SDS011;12898;50.520;12.152;2024-03-07T01:30:49;25.63;;;15.90;;
24801;SDS011;12898;50.520;12.152;2024-03-07T01:33:16;27.47;;;16.10;;
24801;SDS011;12898;50.520;12.152;2024-03-07T01:35:42;26.13;;;16.20;;
24801;SDS011;12898;50.520;12.152;2024-03-07T01:38:08;28.73;;;16.47;;
24801;SDS011;12898;50.520;12.152;2024-03-07T01:40:35;27.30;;;16.37;;
24801;SDS011;12898;50.520;12.152;2024-03-07T01:43:02;28.20;;;16.27;;
24801;SDS011;12898;50.520;12.152;2024-03-07T01:45:28;31.37;;;17.13;;
24801;SDS011;12898;50.520;12.152;2024-03-07T01:47:54;28.60;;;16.60;;
24801;SDS011;12898;50.520;12.152;2024-03-07T01:50:21;28.60;;;17.33;;
24801;SDS011;12898;50.520;12.152;2024-03-07T01:52:47;28.60;;;16.17;;
24801;SDS011;12898;50.520;12.152;2024-03-07T01:55:16;28.27;;;15.67;;
24801;SDS011;12898;50.520;12.152;2024-03-07T01:57:43;29.20;;;16.67;;
24801;SDS011;12898;50.520;12.152;2024-03-07T02:00:10;27.27;;;16.57;;
24801;SDS011;12898;50.520;12.152;2024-03-07T02:02:37;28.20;;;16.03;;
24801;SDS011;12898;50.520;12.152;2024-03-07T02:05:03;27.20;;;17.10;;
24801;SDS011;12898;50.520;12.152;2024-03-07T02:07:31;27.27;;;16.17;;
24801;SDS011;12898;50.520;12.152;2024-03-07T02:10:00;27.47;;;14.63;;
24801;SDS011;12898;50.520;12.152;2024-03-07T02:12:28;26.87;;;15.77;;
24801;SDS011;12898;50.520;12.152;2024-03-07T02:14:57;28.13;;;16.47;;
24801;SDS011;12898;50.520;12.152;2024-03-07T02:17:24;27.73;;;16.10;;
24801;SDS011;12898;50.520;12.152;2024-03-07T02:19:51;29.87;;;16.93;;
24801;SDS011;12898;50.520;12.152;2024-03-07T02:22:17;28.10;;;17.07;;
24801;SDS011;12898;50.520;12.152;2024-03-07T02:24:44;27.67;;;16.80;;
24801;SDS011;12898;50.520;12.152;2024-03-07T02:27:11;28.27;;;16.23;;
24801;SDS011;12898;50.520;12.152;2024-03-07T02:29:37;26.57;;;15.53;;
24801;SDS011;12898;50.520;12.152;2024-03-07T02:32:03;27.33;;;16.30;;
24801;SDS011;12898;50.520;12.152;2024-03-07T02:34:29;29.47;;;17.63;;
24801;SDS011;12898;50.520;12.152;2024-03-07T02:36:55;26.60;;;16.97;;
24801;SDS011;12898;50.520;12.152;2024-03-07T02:39:21;28.10;;;16.70;;
24801;SDS011;12898;50.520;12.152;2024-03-07T02:41:47;25.67;;;15.97;;
24801;SDS011;12898;50.520;12.152;2024-03-07T02:44:13;26.83;;;16.47;;
24801;SDS011;12898;50.520;12.152;2024-03-07T02:46:39;26.10;;;15.80;;
24801;SDS011;12898;50.520;12.152;2024-03-07T02:49:06;27.70;;;16.07;;
24801;SDS011;12898;50.520;12.152;2024-03-07T02:51:32;26.97;;;15.80;;
24801;SDS011;12898;50.520;12.152;2024-03-07T02:53:58;29.27;;;16.87;;
24801;SDS011;12898;50.520;12.152;2024-03-07T02:56:24;28.83;;;16.83;;
24801;SDS011;12898;50.520;12.152;2024-03-07T02:58:50;27.27;;;16.73;;
24801;SDS011;12898;50.520;12.152;2024-03-07T03:01:16;26.20;;;15.67;;
24801;SDS011;12898;50.520;12.152;2024-03-07T03:03:42;27.00;;;16.30;;
24801;SDS011;12898;50.520;12.152;2024-03-07T03:06:09;28.03;;;17.67;;
24801;SDS011;12898;50.520;12.152;2024-03-07T03:08:36;27.40;;;16.47;;
24801;SDS011;12898;50.520;12.152;2024-03-07T03:11:02;29.20;;;16.17;;
24801;SDS011;12898;50.520;12.152;2024-03-07T03:13:28;29.47;;;17.33;;
24801;SDS011;12898;50.520;12.152;2024-03-07T03:15:54;26.63;;;16.33;;
24801;SDS011;12898;50.520;12.152;2024-03-07T03:18:24;27.87;;;16.47;;
24801;SDS011;12898;50.520;12.152;2024-03-07T03:20:50;26.87;;;16.83;;
24801;SDS011;12898;50.520;12.152;2024-03-07T03:23:17;27.97;;;16.77;;
24801;SDS011;12898;50.520;12.152;2024-03-07T03:25:45;30.67;;;18.20;;
24801;SDS011;12898;50.520;12.152;2024-03-07T03:28:13;26.67;;;16.57;;
24801;SDS011;12898;50.520;12.152;2024-03-07T03:30:39;28.80;;;17.70;;
24801;SDS011;12898;50.520;12.152;2024-03-07T03:33:09;28.83;;;17.70;;
24801;SDS011;12898;50.520;12.152;2024-03-07T03:35:35;28.53;;;16.30;;
24801;SDS011;12898;50.520;12.152;2024-03-07T03:38:05;30.13;;;18.30;;
24801;SDS011;12898;50.520;12.152;2024-03-07T03:40:32;28.10;;;17.33;;
24801;SDS011;12898;50.520;12.152;2024-03-07T03:42:58;29.10;;;16.50;;
24801;SDS011;12898;50.520;12.152;2024-03-07T03:45:23;30.63;;;18.37;;
24801;SDS011;12898;50.520;12.152;2024-03-07T03:47:50;32.03;;;18.80;;
24801;SDS011;12898;50.520;12.152;2024-03-07T03:50:17;29.33;;;17.67;;
24801;SDS011;12898;50.520;12.152;2024-03-07T03:52:43;29.70;;;18.07;;
24801;SDS011;12898;50.520;12.152;2024-03-07T03:55:09;33.03;;;18.53;;
24801;SDS011;12898;50.520;12.152;2024-03-07T03:57:37;36.33;;;19.43;;
24801;SDS011;12898;50.520;12.152;2024-03-07T04:00:08;34.97;;;19.20;;
24801;SDS011;12898;50.520;12.152;2024-03-07T04:02:41;32.40;;;19.07;;
24801;SDS011;12898;50.520;12.152;2024-03-07T04:05:13;35.17;;;20.43;;
24801;SDS011;12898;50.520;12.152;2024-03-07T04:07:40;35.23;;;20.47;;
24801;SDS011;12898;50.520;12.152;2024-03-07T04:10:07;35.67;;;19.83;;
24801;SDS011;12898;50.520;12.152;2024-03-07T04:12:34;36.63;;;20.30;;
24801;SDS011;12898;50.520;12.152;2024-03-07T04:15:02;33.17;;;19.33;;
24801;SDS011;12898;50.520;12.152;2024-03-07T04:17:30;34.70;;;19.37;;
24801;SDS011;12898;50.520;12.152;2024-03-07T04:19:56;35.20;;;19.90;;
24801;SDS011;12898;50.520;12.152;2024-03-07T04:22:23;36.47;;;20.00;;
24801;SDS011;12898;50.520;12.152;2024-03-07T04:24:49;36.80;;;20.77;;
24801;SDS011;12898;50.520;12.152;2024-03-07T04:27:19;35.43;;;19.77;;
24801;SDS011;12898;50.520;12.152;2024-03-07T04:29:46;37.20;;;20.67;;
24801;SDS011;12898;50.520;12.152;2024-03-07T04:32:13;35.17;;;20.47;;
24801;SDS011;12898;50.520;12.152;2024-03-07T04:34:39;37.37;;;20.70;;
24801;SDS011;12898;50.520;12.152;2024-03-07T04:37:05;38.40;;;21.53;;
24801;SDS011;12898;50.520;12.152;2024-03-07T04:39:31;36.80;;;20.97;;
24801;SDS011;12898;50.520;12.152;2024-03-07T04:42:00;43.27;;;23.40;;
24801;SDS011;12898;50.520;12.152;2024-03-07T04:44:28;40.07;;;20.87;;
24801;SDS011;12898;50.520;12.152;2024-03-07T04:46:54;45.10;;;21.90;;
24801;SDS011;12898;50.520;12.152;2024-03-07T04:49:25;43.93;;;23.07;;
24801;SDS011;12898;50.520;12.152;2024-03-07T04:51:56;39.93;;;22.53;;
24801;SDS011;12898;50.520;12.152;2024-03-07T04:54:23;41.40;;;22.83;;
24801;SDS011;12898;50.520;12.152;2024-03-07T04:56:51;39.67;;;20.27;;
24801;SDS011;12898;50.520;12.152;2024-03-07T04:59:18;40.77;;;21.40;;
24801;SDS011;12898;50.520;12.152;2024-03-07T05:01:45;37.00;;;20.87;;
24801;SDS011;12898;50.520;12.152;2024-03-07T05:04:13;37.03;;;20.20;;
24801;SDS011;12898;50.520;12.152;2024-03-07T05:06:39;37.87;;;20.27;;
24801;SDS011;12898;50.520;12.152;2024-03-07T05:09:06;41.93;;;21.33;;
24801;SDS011;12898;50.520;12.152;2024-03-07T05:11:50;37.43;;;20.17;;
24801;SDS011;12898;50.520;12.152;2024-03-07T05:14:19;41.80;;;22.40;;
24801;SDS011;12898;50.520;12.152;2024-03-07T05:16:46;39.07;;;21.73;;
24801;SDS011;12898;50.520;12.152;2024-03-07T05:19:30;41.40;;;22.23;;
24801;SDS011;12898;50.520;12.152;2024-03-07T05:21:59;41.83;;;23.17;;
24801;SDS011;12898;50.520;12.152;2024-03-07T05:24:26;41.70;;;21.13;;
24801;SDS011;12898;50.520;12.152;2024-03-07T05:26:52;41.80;;;22.53;;
24801;SDS011;12898;50.520;12.152;2024-03-07T05:29:19;43.27;;;22.27;;
24801;SDS011;12898;50.520;12.152;2024-03-07T05:31:45;42.77;;;22.57;;
24801;SDS011;12898;50.520;12.152;2024-03-07T05:34:16;41.70;;;23.07;;
24801;SDS011;12898;50.520;12.152;2024-03-07T05:36:45;42.27;;;23.50;;
24801;SDS011;12898;50.520;12.152;2024-03-07T05:39:12;44.67;;;23.80;;
24801;SDS011;12898;50.520;12.152;2024-03-07T05:41:40;45.07;;;22.97;;
24801;SDS011;12898;50.520;12.152;2024-03-07T05:44:07;42.77;;;24.77;;
24801;SDS011;12898;50.520;12.152;2024-03-07T05:46:39;47.80;;;23.80;;
24801;SDS011;12898;50.520;12.152;2024-03-07T05:49:13;50.97;;;24.53;;
24801;SDS011;12898;50.520;12.152;2024-03-07T05:51:41;45.10;;;24.20;;
24801;SDS011;12898;50.520;12.152;2024-03-07T05:54:10;44.47;;;24.47;;
24801;SDS011;12898;50.520;12.152;2024-03-07T05:56:38;51.43;;;25.47;;
24801;SDS011;12898;50.520;12.152;2024-03-07T05:59:05;43.87;;;23.47;;
24801;SDS011;12898;50.520;12.152;2024-03-07T06:01:35;50.30;;;24.43;;
24801;SDS011;12898;50.520;12.152;2024-03-07T06:04:02;43.13;;;24.47;;
24801;SDS011;12898;50.520;12.152;2024-03-07T06:06:30;47.60;;;25.27;;
24801;SDS011;12898;50.520;12.152;2024-03-07T06:09:04;49.47;;;25.23;;
24801;SDS011;12898;50.520;12.152;2024-03-07T06:14:04;51.27;;;27.30;;
24801;SDS011;12898;50.520;12.152;2024-03-07T06:16:31;48.40;;;26.03;;
24801;SDS011;12898;50.520;12.152;2024-03-07T06:19:00;51.23;;;27.20;;
24801;SDS011;12898;50.520;12.152;2024-03-07T06:21:34;50.00;;;27.03;;
24801;SDS011;12898;50.520;12.152;2024-03-07T06:24:01;49.30;;;25.63;;
24801;SDS011;12898;50.520;12.152;2024-03-07T06:26:28;57.03;;;27.53;;
24801;SDS011;12898;50.520;12.152;2024-03-07T06:29:17;53.67;;;28.70;;
24801;SDS011;12898;50.520;12.152;2024-03-07T06:31:43;51.47;;;28.83;;
24801;SDS011;12898;50.520;12.152;2024-03-07T06:34:14;58.23;;;28.40;;
24801;SDS011;12898;50.520;12.152;2024-03-07T06:36:39;57.33;;;29.47;;
24801;SDS011;12898;50.520;12.152;2024-03-07T06:39:05;54.00;;;29.03;;
24801;SDS011;12898;50.520;12.152;2024-03-07T06:41:32;58.63;;;29.10;;
24801;SDS011;12898;50.520;12.152;2024-03-07T06:43:58;54.17;;;29.67;;
24801;SDS011;12898;50.520;12.152;2024-03-07T06:46:24;57.30;;;29.03;;
24801;SDS011;12898;50.520;12.152;2024-03-07T06:48:50;56.07;;;29.27;;
24801;SDS011;12898;50.520;12.152;2024-03-07T06:51:16;56.67;;;28.90;;
24801;SDS011;12898;50.520;12.152;2024-03-07T06:53:43;54.67;;;29.93;;
24801;SDS011;12898;50.520;12.152;2024-03-07T06:56:11;57.30;;;28.37;;
24801;SDS011;12898;50.520;12.152;2024-03-07T06:58:38;59.67;;;30.83;;
24801;SDS011;12898;50.520;12.152;2024-03-07T07:01:04;59.93;;;29.33;;
24801;SDS011;12898;50.520;12.152;2024-03-07T07:03:32;58.70;;;28.17;;
24801;SDS011;12898;50.520;12.152;2024-03-07T07:05:58;60.80;;;29.73;;
24801;SDS011;12898;50.520;12.152;2024-03-07T07:08:24;61.33;;;30.23;;
24801;SDS011;12898;50.520;12.152;2024-03-07T07:10:49;54.27;;;28.77;;
24801;SDS011;12898;50.520;12.152;2024-03-07T07:13:15;59.10;;;29.20;;
24801;SDS011;12898;50.520;12.152;2024-03-07T07:15:41;57.03;;;29.43;;
24801;SDS011;12898;50.520;12.152;2024-03-07T07:18:08;59.80;;;29.13;;
24801;SDS011;12898;50.520;12.152;2024-03-07T07:20:35;55.87;;;29.13;;
24801;SDS011;12898;50.520;12.152;2024-03-07T07:23:01;52.30;;;28.27;;
24801;SDS011;12898;50.520;12.152;2024-03-07T07:25:29;64.63;;;30.03;;
24801;SDS011;12898;50.520;12.152;2024-03-07T07:27:55;53.57;;;28.10;;
24801;SDS011;12898;50.520;12.152;2024-03-07T07:30:22;53.77;;;28.43;;
24801;SDS011;12898;50.520;12.152;2024-03-07T07:32:48;56.83;;;29.07;;
24801;SDS011;12898;50.520;12.152;2024-03-07T07:35:18;52.90;;;27.80;;
24801;SDS011;12898;50.520;12.152;2024-03-07T07:37:46;54.30;;;28.67;;
24801;SDS011;12898;50.520;12.152;2024-03-07T07:40:15;59.67;;;29.10;;
24801;SDS011;12898;50.520;12.152;2024-03-07T07:42:48;61.60;;;28.47;;
24801;SDS011;12898;50.520;12.152;2024-03-07T07:45:18;55.83;;;28.33;;
24801;SDS011;12898;50.520;12.152;2024-03-07T07:47:47;52.27;;;28.10;;
24801;SDS011;12898;50.520;12.152;2024-03-07T07:50:18;63.03;;;30.47;;
24801;SDS011;12898;50.520;12.152;2024-03-07T07:52:48;57.63;;;29.43;;
24801;SDS011;12898;50.520;12.152;2024-03-07T07:55:34;56.13;;;27.90;;
24801;SDS011;12898;50.520;12.152;2024-03-07T07:58:00;56.60;;;28.33;;
24801;SDS011;12898;50.520;12.152;2024-03-07T08:00:29;53.03;;;28.40;;
24801;SDS011;12898;50.520;12.152;2024-03-07T08:03:02;49.47;;;25.60;;
24801;SDS011;12898;50.520;12.152;2024-03-07T08:05:32;52.53;;;26.73;;
24801;SDS011;12898;50.520;12.152;2024-03-07T08:08:01;45.50;;;25.73;;
24801;SDS011;12898;50.520;12.152;2024-03-07T08:10:32;47.30;;;25.77;;
24801;SDS011;12898;50.520;12.152;2024-03-07T08:13:00;51.40;;;26.43;;
24801;SDS011;12898;50.520;12.152;2024-03-07T08:15:27;47.73;;;25.47;;
24801;SDS011;12898;50.520;12.152;2024-03-07T08:17:55;46.20;;;25.30;;
24801;SDS011;12898;50.520;12.152;2024-03-07T08:20:22;43.30;;;25.33;;
24801;SDS011;12898;50.520;12.152;2024-03-07T08:22:51;44.67;;;24.80;;
24801;SDS011;12898;50.520;12.152;2024-03-07T08:25:19;41.50;;;24.40;;
24801;SDS011;12898;50.520;12.152;2024-03-07T08:27:48;40.60;;;23.93;;
24801;SDS011;12898;50.520;12.152;2024-03-07T08:30:15;39.60;;;23.87;;
24801;SDS011;12898;50.520;12.152;2024-03-07T08:32:44;40.30;;;23.93;;
24801;SDS011;12898;50.520;12.152;2024-03-07T08:35:12;38.10;;;23.43;;
24801;SDS011;12898;50.520;12.152;2024-03-07T08:37:44;40.60;;;23.57;;
24801;SDS011;12898;50.520;12.152;2024-03-07T08:40:14;37.87;;;22.87;;
24801;SDS011;12898;50.520;12.152;2024-03-07T08:42:47;41.13;;;24.10;;
24801;SDS011;12898;50.520;12.152;2024-03-07T08:45:17;38.93;;;22.73;;
24801;SDS011;12898;50.520;12.152;2024-03-07T08:47:47;38.03;;;22.67;;
24801;SDS011;12898;50.520;12.152;2024-03-07T08:50:17;37.50;;;23.20;;
24801;SDS011;12898;50.520;12.152;2024-03-07T08:52:47;36.67;;;22.83;;
24801;SDS011;12898;50.520;12.152;2024-03-07T08:55:14;36.75;;;21.83;;
24801;SDS011;12898;50.520;12.152;2024-03-07T08:57:42;35.83;;;21.02;;
24801;SDS011;12898;50.520;12.152;2024-03-07T09:00:11;36.90;;;22.83;;
24801;SDS011;12898;50.520;12.152;2024-03-07T09:02:47;34.15;;;21.55;;
24801;SDS011;12898;50.520;12.152;2024-03-07T09:05:17;31.63;;;21.38;;
24801;SDS011;12898;50.520;12.152;2024-03-07T09:07:44;35.05;;;20.35;;
24801;SDS011;12898;50.520;12.152;2024-03-07T09:10:12;36.57;;;21.70;;
24801;SDS011;12898;50.520;12.152;2024-03-07T09:12:42;31.85;;;19.85;;
24801;SDS011;12898;50.520;12.152;2024-03-07T09:15:09;34.63;;;21.90;;
24801;SDS011;12898;50.520;12.152;2024-03-07T09:17:35;33.28;;;21.48;;
24801;SDS011;12898;50.520;12.152;2024-03-07T09:20:02;29.45;;;19.95;;
24801;SDS011;12898;50.520;12.152;2024-03-07T09:22:30;29.40;;;19.63;;
24801;SDS011;12898;50.520;12.152;2024-03-07T09:24:57;29.90;;;20.25;;
24801;SDS011;12898;50.520;12.152;2024-03-07T09:27:23;31.42;;;18.60;;
24801;SDS011;12898;50.520;12.152;2024-03-07T09:29:49;29.60;;;20.08;;
24801;SDS011;12898;50.520;12.152;2024-03-07T09:32:15;31.55;;;20.15;;
24801;SDS011;12898;50.520;12.152;2024-03-07T09:34:42;28.98;;;19.23;;
24801;SDS011;12898;50.520;12.152;2024-03-07T09:37:07;30.48;;;20.02;;
24801;SDS011;12898;50.520;12.152;2024-03-07T09:39:33;33.78;;;20.48;;
24801;SDS011;12898;50.520;12.152;2024-03-07T09:42:00;33.65;;;20.30;;
24801;SDS011;12898;50.520;12.152;2024-03-07T09:44:34;31.30;;;20.02;;
24801;SDS011;12898;50.520;12.152;2024-03-07T09:47:04;28.60;;;18.95;;
24801;SDS011;12898;50.520;12.152;2024-03-07T09:49:30;29.05;;;18.58;;
24801;SDS011;12898;50.520;12.152;2024-03-07T09:52:00;28.73;;;17.80;;
24801;SDS011;12898;50.520;12.152;2024-03-07T09:54:36;25.65;;;16.33;;
24801;SDS011;12898;50.520;12.152;2024-03-07T09:57:05;24.75;;;16.30;;
24801;SDS011;12898;50.520;12.152;2024-03-07T09:59:34;26.10;;;15.68;;
24801;SDS011;12898;50.520;12.152;2024-03-07T10:02:01;22.20;;;14.88;;
24801;SDS011;12898;50.520;12.152;2024-03-07T10:07:18;21.50;;;13.80;;
24801;SDS011;12898;50.520;12.152;2024-03-07T10:09:44;25.75;;;16.27;;
24801;SDS011;12898;50.520;12.152;2024-03-07T10:12:10;22.42;;;15.20;;
24801;SDS011;12898;50.520;12.152;2024-03-07T10:14:47;23.90;;;16.35;;
24801;SDS011;12898;50.520;12.152;2024-03-07T10:17:16;25.30;;;15.60;;
24801;SDS011;12898;50.520;12.152;2024-03-07T10:19:46;21.55;;;14.95;;
24801;SDS011;12898;50.520;12.152;2024-03-07T10:22:13;21.80;;;13.68;;
24801;SDS011;12898;50.520;12.152;2024-03-07T10:24:41;22.60;;;14.60;;
24801;SDS011;12898;50.520;12.152;2024-03-07T10:27:23;23.27;;;15.38;;
24801;SDS011;12898;50.520;12.152;2024-03-07T10:29:52;23.48;;;14.32;;
24801;SDS011;12898;50.520;12.152;2024-03-07T10:32:19;22.55;;;14.45;;
24801;SDS011;12898;50.520;12.152;2024-03-07T10:34:46;22.27;;;14.38;;
24801;SDS011;12898;50.520;12.152;2024-03-07T10:37:13;22.00;;;13.77;;
24801;SDS011;12898;50.520;12.152;2024-03-07T10:39:46;30.52;;;14.77;;
24801;SDS011;12898;50.520;12.152;2024-03-07T10:42:14;22.52;;;14.02;;
24801;SDS011;12898;50.520;12.152;2024-03-07T10:44:45;26.52;;;15.57;;
24801;SDS011;12898;50.520;12.152;2024-03-07T10:47:21;27.17;;;16.45;;
24801;SDS011;12898;50.520;12.152;2024-03-07T10:52:53;27.45;;;17.27;;
24801;SDS011;12898;50.520;12.152;2024-03-07T10:58:37;28.00;;;16.48;;
24801;SDS011;12898;50.520;12.152;2024-03-07T11:01:08;24.10;;;14.85;;
24801;SDS011;12898;50.520;12.152;2024-03-07T11:03:38;23.42;;;14.95;;
24801;SDS011;12898;50.520;12.152;2024-03-07T11:06:06;24.92;;;15.60;;
24801;SDS011;12898;50.520;12.152;2024-03-07T11:08:36;23.33;;;14.90;;
24801;SDS011;12898;50.520;12.152;2024-03-07T11:11:03;23.52;;;14.45;;
24801;SDS011;12898;50.520;12.152;2024-03-07T11:13:30;24.27;;;15.23;;
24801;SDS011;12898;50.520;12.152;2024-03-07T11:15:56;26.88;;;15.35;;
24801;SDS011;12898;50.520;12.152;2024-03-07T11:18:25;22.90;;;14.32;;
24801;SDS011;12898;50.520;12.152;2024-03-07T11:20:51;24.10;;;14.75;;
24801;SDS011;12898;50.520;12.152;2024-03-07T11:23:25;24.27;;;13.82;;
24801;SDS011;12898;50.520;12.152;2024-03-07T11:26:06;26.83;;;15.07;;
24801;SDS011;12898;50.520;12.152;2024-03-07T11:28:41;24.65;;;15.02;;
24801;SDS011;12898;50.520;12.152;2024-03-07T11:36:44;22.80;;;13.85;;
24801;SDS011;12898;50.520;12.152;2024-03-07T11:42:33;22.10;;;14.50;;
24801;SDS011;12898;50.520;12.152;2024-03-07T11:45:00;25.50;;;14.82;;
24801;SDS011;12898;50.520;12.152;2024-03-07T11:47:37;24.00;;;14.50;;
24801;SDS011;12898;50.520;12.152;2024-03-07T11:50:07;22.08;;;14.98;;
24801;SDS011;12898;50.520;12.152;2024-03-07T11:52:41;25.98;;;16.58;;
24801;SDS011;12898;50.520;12.152;2024-03-07T11:55:09;24.80;;;15.45;;
24801;SDS011;12898;50.520;12.152;2024-03-07T11:57:36;24.38;;;15.30;;
24801;SDS011;12898;50.520;12.152;2024-03-07T12:00:03;24.88;;;15.00;;
24801;SDS011;12898;50.520;12.152;2024-03-07T12:02:39;22.50;;;14.20;;
24801;SDS011;12898;50.520;12.152;2024-03-07T12:05:05;23.85;;;13.82;;
24801;SDS011;12898;50.520;12.152;2024-03-07T12:07:32;26.15;;;15.85;;
24801;SDS011;12898;50.520;12.152;2024-03-07T12:09:58;21.33;;;13.13;;
24801;SDS011;12898;50.520;12.152;2024-03-07T12:12:28;22.30;;;13.68;;
24801;SDS011;12898;50.520;12.152;2024-03-07T12:14:55;20.98;;;13.20;;
24801;SDS011;12898;50.520;12.152;2024-03-07T12:17:21;21.85;;;12.95;;
24801;SDS011;12898;50.520;12.152;2024-03-07T12:19:49;21.73;;;12.98;;
24801;SDS011;12898;50.520;12.152;2024-03-07T12:22:18;18.67;;;12.18;;
24801;SDS011;12898;50.520;12.152;2024-03-07T12:24:48;21.70;;;12.38;;
24801;SDS011;12898;50.520;12.152;2024-03-07T12:27:29;19.40;;;11.73;;
24801;SDS011;12898;50.520;12.152;2024-03-07T12:29:55;19.17;;;11.98;;
24801;SDS011;12898;50.520;12.152;2024-03-07T12:32:21;19.95;;;12.20;;
24801;SDS011;12898;50.520;12.152;2024-03-07T12:34:46;19.52;;;11.65;;
24801;SDS011;12898;50.520;12.152;2024-03-07T12:37:12;19.45;;;12.65;;
24801;SDS011;12898;50.520;12.152;2024-03-07T12:39:42;21.13;;;13.10;;
24801;SDS011;12898;50.520;12.152;2024-03-07T12:42:18;22.45;;;12.82;;
24801;SDS011;12898;50.520;12.152;2024-03-07T12:44:46;20.77;;;13.43;;
24801;SDS011;12898;50.520;12.152;2024-03-07T12:47:12;18.75;;;11.90;;
24801;SDS011;12898;50.520;12.152;2024-03-07T12:49:42;19.60;;;11.82;;
24801;SDS011;12898;50.520;12.152;2024-03-07T12:52:09;18.35;;;12.35;;
24801;SDS011;12898;50.520;12.152;2024-03-07T12:54:35;20.10;;;12.35;;
24801;SDS011;12898;50.520;12.152;2024-03-07T12:57:06;21.60;;;12.15;;
24801;SDS011;12898;50.520;12.152;2024-03-07T12:59:40;21.90;;;12.32;;
24801;SDS011;12898;50.520;12.152;2024-03-07T13:02:09;19.27;;;12.07;;
24801;SDS011;12898;50.520;12.152;2024-03-07T13:04:37;18.85;;;11.93;;
24801;SDS011;12898;50.520;12.152;2024-03-07T13:07:06;18.67;;;11.95;;
24801;SDS011;12898;50.520;12.152;2024-03-07T13:09:32;20.02;;;12.25;;
24801;SDS011;12898;50.520;12.152;2024-03-07T13:12:02;19.50;;;12.77;;
24801;SDS011;12898;50.520;12.152;2024-03-07T13:14:31;19.98;;;12.88;;
24801;SDS011;12898;50.520;12.152;2024-03-07T13:17:01;20.63;;;12.73;;
24801;SDS011;12898;50.520;12.152;2024-03-07T13:19:29;20.25;;;12.95;;
24801;SDS011;12898;50.520;12.152;2024-03-07T13:21:55;19.95;;;13.20;;
24801;SDS011;12898;50.520;12.152;2024-03-07T13:24:22;23.52;;;14.20;;
24801;SDS011;12898;50.520;12.152;2024-03-07T13:26:49;24.42;;;13.85;;
24801;SDS011;12898;50.520;12.152;2024-03-07T13:29:15;22.00;;;13.20;;
24801;SDS011;12898;50.520;12.152;2024-03-07T13:31:44;22.13;;;14.18;;
24801;SDS011;12898;50.520;12.152;2024-03-07T13:34:10;23.92;;;13.55;;
24801;SDS011;12898;50.520;12.152;2024-03-07T13:36:41;20.63;;;13.30;;
24801;SDS011;12898;50.520;12.152;2024-03-07T13:39:10;20.73;;;13.07;;
24801;SDS011;12898;50.520;12.152;2024-03-07T13:41:39;20.60;;;12.77;;
24801;SDS011;12898;50.520;12.152;2024-03-07T13:44:06;21.80;;;13.23;;
24801;SDS011;12898;50.520;12.152;2024-03-07T13:46:32;22.30;;;12.93;;
24801;SDS011;12898;50.520;12.152;2024-03-07T13:49:01;23.13;;;14.13;;
24801;SDS011;12898;50.520;12.152;2024-03-07T13:51:40;20.13;;;12.90;;
24801;SDS011;12898;50.520;12.152;2024-03-07T13:54:21;21.75;;;13.70;;
24801;SDS011;12898;50.520;12.152;2024-03-07T13:57:06;20.75;;;13.25;;
24801;SDS011;12898;50.520;12.152;2024-03-07T14:05:58;22.42;;;14.13;;
24801;SDS011;12898;50.520;12.152;2024-03-07T14:08:50;21.45;;;13.75;;
24801;SDS011;12898;50.520;12.152;2024-03-07T14:12:04;23.63;;;14.00;;
24801;SDS011;12898;50.520;12.152;2024-03-07T14:15:12;21.27;;;13.40;;
24801;SDS011;12898;50.520;12.152;2024-03-07T14:27:50;20.55;;;12.43;;
24801;SDS011;12898;50.520;12.152;2024-03-07T14:30:49;23.75;;;14.93;;
24801;SDS011;12898;50.520;12.152;2024-03-07T14:33:24;23.30;;;14.18;;
24801;SDS011;12898;50.520;12.152;2024-03-07T14:36:00;22.00;;;14.27;;
24801;SDS011;12898;50.520;12.152;2024-03-07T14:41:05;21.67;;;14.27;;
24801;SDS011;12898;50.520;12.152;2024-03-07T14:43:33;23.20;;;13.55;;
24801;SDS011;12898;50.520;12.152;2024-03-07T14:45:59;23.55;;;13.40;;
24801;SDS011;12898;50.520;12.152;2024-03-07T14:48:25;20.80;;;13.38;;
24801;SDS011;12898;50.520;12.152;2024-03-07T14:50:52;21.83;;;13.90;;
24801;SDS011;12898;50.520;12.152;2024-03-07T14:53:18;22.10;;;14.18;;
24801;SDS011;12898;50.520;12.152;2024-03-07T14:55:48;20.67;;;13.32;;